createdAt,value
2022-12-11T00:01:20.352Z,99253.19
2022-12-11T00:05:21.906Z,99253.44
2022-12-11T00:09:23.618Z,99266.03
2022-12-11T00:13:25.252Z,99275.28
2022-12-11T00:17:26.809Z,99275.72
2022-12-11T00:21:28.359Z,99272.47
2022-12-11T00:25:29.943Z,99277.75
2022-12-11T00:29:31.592Z,99268.72
2022-12-11T00:33:33.193Z,99269.59
2022-12-11T00:37:34.829Z,99262.59
2022-12-11T00:41:36.433Z,99261.44
2022-12-11T00:45:39.222Z,99266.31
2022-12-11T00:49:45.113Z,99272.16
2022-12-11T00:53:49.790Z,99274.31
2022-12-11T00:57:51.928Z,99274.94
2022-12-11T01:01:53.467Z,99269.53
2022-12-11T01:05:55.552Z,99272.88
2022-12-11T01:10:15.645Z,99271.28
2022-12-11T01:14:17.197Z,99270.72
2022-12-11T01:18:18.824Z,99268.63
2022-12-11T01:22:20.609Z,99269.09
2022-12-11T01:26:22.566Z,99269.75
2022-12-11T01:30:25.782Z,99276.66
2022-12-11T01:34:30.273Z,99259.56
2022-12-11T01:38:31.797Z,99258.34
2022-12-11T01:42:34.355Z,99255.38
2022-12-11T01:46:37.035Z,99262.59
2022-12-11T01:50:44.284Z,99263.44
2022-12-11T01:54:46.491Z,99273.88
2022-12-11T01:58:53.871Z,99264.53
2022-12-11T02:02:55.478Z,99265.16
2022-12-11T02:06:57.279Z,99268.31
2022-12-11T02:11:14.595Z,99268.56
2022-12-11T02:15:22.881Z,99262.78
2022-12-11T02:19:39.697Z,99252.38
2022-12-11T02:24:00.413Z,99260.31
2022-12-11T02:28:20.632Z,99263.69
2022-12-11T02:32:59.018Z,99269.94
2022-12-11T02:37:09.657Z,99270.31
2022-12-11T02:41:12.116Z,99269.09
2022-12-11T02:45:15.182Z,99276.84
2022-12-11T02:49:21.243Z,99263.75
2022-12-11T02:53:26.182Z,99264.56
2022-12-11T02:57:34.350Z,99254.19
2022-12-11T03:01:36.104Z,99265.66
2022-12-11T03:05:38.531Z,99268.38
2022-12-11T03:09:42.116Z,99261.91
2022-12-11T03:13:44.055Z,99272.34
2022-12-11T03:18:08.046Z,99273.84
2022-12-11T03:22:16.477Z,99271.34
2022-12-11T03:26:20.212Z,99266.75
2022-12-11T03:30:24.034Z,99260.50
2022-12-11T03:34:37.176Z,99265.06
2022-12-11T03:38:49.234Z,99272.19
2022-12-11T03:42:53.594Z,99268.31
2022-12-11T03:46:57.862Z,99268.00
2022-12-11T03:51:03.798Z,99264.06
2022-12-11T03:55:06.820Z,99265.53
2022-12-11T03:59:08.909Z,99262.91
2022-12-11T04:03:14.064Z,99257.41
2022-12-11T04:07:15.894Z,99265.69
2022-12-11T04:11:35.672Z,99268.84
2022-12-11T04:15:38.405Z,99267.78
2022-12-11T04:19:58.715Z,99260.97
2022-12-11T04:24:15.544Z,99257.09
2022-12-11T04:28:17.151Z,99257.31
2022-12-11T04:32:18.696Z,99265.84
2022-12-11T04:36:20.226Z,99272.69
2022-12-11T04:40:22.374Z,99262.25
2022-12-11T04:44:23.980Z,99268.75
2022-12-11T04:48:25.532Z,99267.16
2022-12-11T04:52:27.149Z,99265.72
2022-12-11T04:56:28.782Z,99257.41
2022-12-11T05:00:30.734Z,99250.09
2022-12-11T05:04:34.298Z,99250.53
2022-12-11T05:08:37.980Z,99248.50
2022-12-11T05:12:39.710Z,99255.91
2022-12-11T05:16:41.275Z,99250.06
2022-12-11T05:20:42.840Z,99251.25
2022-12-11T05:24:45.769Z,99244.50
2022-12-11T05:28:53.296Z,99240.00
2022-12-11T05:32:54.957Z,99235.66
2022-12-11T05:36:56.554Z,99238.84
2022-12-11T05:41:03.669Z,99235.50
2022-12-11T05:45:05.691Z,99235.94
2022-12-11T05:49:07.962Z,99240.06
2022-12-11T05:53:09.535Z,99225.41
2022-12-11T05:57:11.137Z,99225.59
2022-12-11T06:01:15.829Z,99213.69
2022-12-11T06:05:17.579Z,99211.19
2022-12-11T06:09:19.186Z,99219.75
2022-12-11T06:13:21.303Z,99220.19
2022-12-11T06:17:23.490Z,99232.31
2022-12-11T06:21:28.176Z,99229.00
2022-12-11T06:25:30.244Z,99232.81
2022-12-11T06:29:31.816Z,99228.47
2022-12-11T06:33:33.913Z,99223.72
2022-12-11T06:37:37.072Z,99213.88
2022-12-11T06:41:38.882Z,99205.34
2022-12-11T06:45:40.539Z,99217.63
2022-12-11T06:49:42.165Z,99207.22
2022-12-11T06:53:44.362Z,99214.75
2022-12-11T06:57:45.909Z,99208.47
2022-12-11T07:01:47.516Z,99213.06
2022-12-11T07:05:49.203Z,99203.50
2022-12-11T07:09:51.003Z,99208.97
2022-12-11T07:13:52.554Z,99212.53
2022-12-11T07:17:54.187Z,99206.69
2022-12-11T07:21:55.764Z,99203.56
2022-12-11T07:25:57.841Z,99207.78
2022-12-11T07:29:59.460Z,99210.66
2022-12-11T07:34:04.054Z,99211.75
2022-12-11T07:38:05.639Z,99219.88
2022-12-11T07:42:07.265Z,99224.72
2022-12-11T07:46:15.559Z,99232.00
2022-12-11T07:50:17.227Z,99243.66
2022-12-11T07:54:18.768Z,99239.69
2022-12-11T07:58:20.638Z,99236.22
2022-12-11T08:02:22.347Z,99234.09
2022-12-11T08:06:33.167Z,99229.91
2022-12-11T08:10:34.757Z,99222.47
2022-12-11T08:14:36.409Z,99226.22
2022-12-11T08:18:38.023Z,99235.13
2022-12-11T08:22:39.662Z,99248.69
2022-12-11T08:26:41.240Z,99245.75
2022-12-11T08:30:42.887Z,99254.13
2022-12-11T08:34:44.975Z,99254.13
2022-12-11T08:38:47.008Z,99255.84
2022-12-11T08:42:48.626Z,99247.38
2022-12-11T08:46:50.913Z,99242.41
2022-12-11T08:50:52.667Z,99243.69
2022-12-11T08:54:54.345Z,99236.41
2022-12-11T08:58:56.075Z,99238.72
2022-12-11T09:02:57.734Z,99242.03
2022-12-11T09:06:59.382Z,99245.34
2022-12-11T09:11:06.884Z,99234.75
2022-12-11T09:15:11.768Z,99238.06
2022-12-11T09:19:14.889Z,99232.47
2022-12-11T09:23:16.662Z,99249.56
2022-12-11T09:27:19.906Z,99254.13
2022-12-11T09:31:32.716Z,99249.47
2022-12-11T09:35:34.328Z,99247.19
2022-12-11T09:39:35.891Z,99240.56
2022-12-11T09:43:52.824Z,99243.16
2022-12-11T09:47:56.591Z,99237.34
2022-12-11T09:52:19.701Z,99230.28
2022-12-11T09:56:25.414Z,99230.53
2022-12-11T10:00:44.495Z,99230.13
2022-12-11T10:05:02.255Z,99229.88
2022-12-11T10:09:30.943Z,99232.84
2022-12-11T10:14:07.759Z,99220.53
2022-12-11T10:18:16.113Z,99223.44
2022-12-11T10:22:24.561Z,99218.19
2022-12-11T10:26:29.343Z,99211.56
2022-12-11T10:30:38.021Z,99205.94
2022-12-11T10:34:44.127Z,99205.75
2022-12-11T10:38:46.905Z,99196.31
2022-12-11T10:42:53.284Z,99197.78
2022-12-11T10:47:21.299Z,99189.44
2022-12-11T10:51:26.714Z,99183.16
2022-12-11T10:55:34.298Z,99181.03
2022-12-11T10:59:40.734Z,99177.72
2022-12-11T11:04:14.209Z,99181.69
2022-12-11T11:08:22.631Z,99184.81
2022-12-11T11:12:27.580Z,99163.94
2022-12-11T11:16:29.436Z,99161.41
2022-12-11T11:20:34.163Z,99160.56
2022-12-11T11:24:41.938Z,99160.56
2022-12-11T11:28:48.881Z,99158.44
2022-12-11T11:32:54.408Z,99148.00
2022-12-11T11:36:57.860Z,99145.66
2022-12-11T11:41:24.325Z,99148.00
2022-12-11T11:45:39.798Z,99139.19
2022-12-11T11:49:52.946Z,99146.69
2022-12-11T11:53:59.338Z,99141.28
2022-12-11T11:58:07.504Z,99140.88
2022-12-11T12:02:18.173Z,99137.72
2022-12-11T12:06:25.999Z,99131.03
2022-12-11T12:10:38.909Z,99136.44
2022-12-11T12:15:18.821Z,99133.75
2022-12-11T12:19:23.346Z,99135.00
2022-12-11T12:23:41.267Z,99131.03
2022-12-11T12:27:54.929Z,99130.84
2022-12-11T12:32:02.490Z,99129.31
2022-12-11T12:36:23.069Z,99127.81
2022-12-11T12:40:44.771Z,99125.91
2022-12-11T12:45:08.943Z,99125.16
2022-12-11T12:49:15.663Z,99127.25
2022-12-11T12:53:28.682Z,99121.81
2022-12-11T12:57:30.978Z,99128.78
2022-12-11T13:01:32.654Z,99138.84
2022-12-11T13:05:34.696Z,99132.56
2022-12-11T13:09:36.267Z,99133.03
2022-12-11T13:13:42.495Z,99135.13
2022-12-11T13:17:44.049Z,99127.59
2022-12-11T13:21:56.760Z,99129.25
2022-12-11T13:26:02.051Z,99130.53
2022-12-11T13:30:15.917Z,99127.16
2022-12-11T13:34:22.780Z,99130.91
2022-12-11T13:38:25.617Z,99133.88
2022-12-11T13:42:33.096Z,99130.09
2022-12-11T13:46:37.772Z,99138.03
2022-12-11T13:50:43.799Z,99118.81
2022-12-11T13:54:56.381Z,99123.41
2022-12-11T13:58:58.179Z,99126.31
2022-12-11T14:03:05.245Z,99134.06
2022-12-11T14:07:09.411Z,99134.66
2022-12-11T14:11:21.769Z,99135.72
2022-12-11T14:15:24.139Z,99140.72
2022-12-11T14:19:26.026Z,99150.56
2022-12-11T14:23:31.255Z,99146.81
2022-12-11T14:27:33.278Z,99148.66
2022-12-11T14:31:40.559Z,99150.38
2022-12-11T14:35:43.630Z,99161.00
2022-12-11T14:39:53.090Z,99148.25
2022-12-11T14:43:59.103Z,99163.09
2022-12-11T14:48:03.297Z,99167.47
2022-12-11T14:52:05.300Z,99171.88
2022-12-11T14:56:09.557Z,99162.47
2022-12-11T15:00:29.784Z,99167.47
2022-12-11T15:04:33.468Z,99176.88
2022-12-11T15:08:37.016Z,99178.94
2022-12-11T15:12:45.164Z,99174.16
2022-12-11T15:16:49.335Z,99171.84
2022-12-11T15:20:54.653Z,99168.50
2022-12-11T15:24:56.288Z,99166.66
2022-12-11T15:29:02.858Z,99175.19
2022-12-11T15:33:10.363Z,99177.47
2022-12-11T15:37:32.697Z,99172.47
2022-12-11T15:41:34.788Z,99184.38
2022-12-11T15:45:36.340Z,99181.44
2022-12-11T15:49:37.930Z,99183.53
2022-12-11T15:53:39.502Z,99181.19
2022-12-11T15:58:02.702Z,99183.50
2022-12-11T16:02:04.344Z,99182.25
2022-12-11T16:06:06.145Z,99190.63
2022-12-11T16:10:13.357Z,99192.94
2022-12-11T16:14:14.898Z,99187.28
2022-12-11T16:18:20.904Z,99185.84
2022-12-11T16:22:22.582Z,99178.94
2022-12-11T16:26:24.263Z,99177.69
2022-12-11T16:30:27.728Z,99181.03
2022-12-11T16:34:29.548Z,99175.19
2022-12-11T16:38:31.190Z,99173.94
2022-12-11T16:42:33.206Z,99170.16
2022-12-11T16:46:34.881Z,99171.84
2022-12-11T16:50:39.861Z,99172.69
2022-12-11T16:54:41.434Z,99169.56
2022-12-11T16:58:43.165Z,99166.25
2022-12-11T17:02:44.821Z,99169.16
2022-12-11T17:06:46.522Z,99166.84
2022-12-11T17:10:48.235Z,99165.78
2022-12-11T17:14:50.650Z,99159.72
2022-12-11T17:18:53.368Z,99157.00
2022-12-11T17:22:54.934Z,99161.19
2022-12-11T17:26:56.820Z,99152.22
2022-12-11T17:30:58.745Z,99162.44
2022-12-11T17:35:00.370Z,99157.22
2022-12-11T17:39:02.001Z,99164.97
2022-12-11T17:43:06.411Z,99160.16
2022-12-11T17:47:11.263Z,99166.44
2022-12-11T17:51:20.985Z,99162.25
2022-12-11T17:55:22.687Z,99163.47
2022-12-11T17:59:24.889Z,99163.06
2022-12-11T18:03:28.290Z,99162.44
2022-12-11T18:07:30.032Z,99161.38
2022-12-11T18:11:33.018Z,99166.19
2022-12-11T18:15:36.440Z,99166.59
2022-12-11T18:19:42.791Z,99162.00
2022-12-11T18:23:48.226Z,99168.69
2022-12-11T18:27:49.830Z,99165.09
2022-12-11T18:31:51.535Z,99165.94
2022-12-11T18:35:53.220Z,99158.88
2022-12-11T18:39:54.986Z,99159.47
2022-12-11T18:44:01.995Z,99160.53
2022-12-11T18:48:07.813Z,99157.19
2022-12-11T18:52:09.448Z,99166.56
2022-12-11T18:56:16.602Z,99158.00
2022-12-11T19:00:18.840Z,99163.19
2022-12-11T19:04:20.988Z,99160.28
2022-12-11T19:08:23.735Z,99154.63
2022-12-11T19:12:25.730Z,99162.53
2022-12-11T19:16:30.242Z,99165.88
2022-12-11T19:20:58.014Z,99169.81
2022-12-11T19:24:58.321Z,99159.38
2022-12-11T19:29:00.431Z,99154.59
2022-12-11T19:33:03.573Z,99153.16
2022-12-11T19:37:05.467Z,99158.38
2022-12-11T19:41:17.530Z,99149.38
2022-12-11T19:45:19.289Z,99148.56
2022-12-11T19:49:21.548Z,99151.06
2022-12-11T19:53:23.241Z,99157.72
2022-12-11T19:57:24.874Z,99150.81
2022-12-11T20:01:30.418Z,99157.91
2022-12-11T20:05:32.137Z,99150.41
2022-12-11T20:09:33.777Z,99161.28
2022-12-11T20:13:36.695Z,99155.19
2022-12-11T20:17:43.436Z,99162.09
2022-12-11T20:21:45.014Z,99152.31
2022-12-11T20:25:46.665Z,99161.72
2022-12-11T20:29:48.289Z,99158.16
2022-12-11T20:33:52.499Z,99156.75
2022-12-11T20:37:54.110Z,99151.72
2022-12-11T20:41:55.885Z,99156.75
2022-12-11T20:45:57.625Z,99146.50
2022-12-11T20:49:59.411Z,99152.56
2022-12-11T20:54:01.440Z,99154.69
2022-12-11T20:58:03.001Z,99158.47
2022-12-11T21:02:05.596Z,99161.38
2022-12-11T21:06:07.418Z,99154.91
2022-12-11T21:10:09.723Z,99158.25
2022-12-11T21:14:11.530Z,99160.97
2022-12-11T21:18:13.258Z,99163.06
2022-12-11T21:22:14.828Z,99164.50
2022-12-11T21:26:17.358Z,99160.53
2022-12-11T21:30:19.803Z,99157.41
2022-12-11T21:34:25.271Z,99155.53
2022-12-11T21:38:28.372Z,99155.53
2022-12-11T21:42:30.296Z,99158.88
2022-12-11T21:46:32.623Z,99170.34
2022-12-11T21:50:35.506Z,99165.31
2022-12-11T21:54:37.310Z,99171.38
2022-12-11T21:58:41.181Z,99167.22
2022-12-11T22:02:43.005Z,99172.03
2022-12-11T22:06:47.098Z,99168.06
2022-12-11T22:10:49.998Z,99171.41
2022-12-11T22:14:52.037Z,99162.66
2022-12-11T22:18:53.698Z,99168.69
2022-12-11T22:22:55.361Z,99162.41
2022-12-11T22:26:57.266Z,99166.38
2022-12-11T22:30:59.366Z,99162.84
2022-12-11T22:35:01.703Z,99168.25
2022-12-11T22:39:03.610Z,99164.91
2022-12-11T22:43:05.164Z,99162.59
2022-12-11T22:47:06.791Z,99164.91
2022-12-11T22:51:08.481Z,99161.13
2022-12-11T22:55:10.572Z,99162.16
2022-12-11T22:59:12.645Z,99160.03
2022-12-11T23:03:14.570Z,99160.44
2022-12-11T23:07:16.282Z,99157.09
2022-12-11T23:11:27.479Z,99157.75
2022-12-11T23:15:29.089Z,99180.69
2022-12-11T23:19:30.769Z,99176.28
2022-12-11T23:23:32.614Z,99173.13
2022-12-11T23:27:34.405Z,99182.09
2022-12-11T23:31:36.451Z,99176.66
2022-12-11T23:35:38.172Z,99185.00
2022-12-11T23:39:39.874Z,99176.66
2022-12-11T23:43:42.033Z,99186.28
2022-12-11T23:47:43.616Z,99194.41
2022-12-11T23:51:45.201Z,99199.66
2022-12-11T23:55:46.902Z,99191.50
2022-12-11T23:59:48.571Z,99194.22
